.
WxDataArchive / Data Records for 2008-03-24
2008-03-23 March 2008 2008-03-25

Data Records for Monday, 24 March 2008

Time	Temp	Chill	HIndex	Humid	Dewpt	 Wind 	HiWind	WindDir	Rain 	Barom 
-----	----	-----	------	-----	-----	------	------	-------	-----	----- 
00:00	28.1	28.1	28.1	75	21.2	0	0	---	0.00	30.221 
00:05	27.9	27.9	27.9	74	20.7	0	0	---	0.00	30.221 
00:10	27.9	27.9	27.9	74	20.7	0	0	---	0.00	30.221 
00:15	27.8	27.8	27.8	74	20.6	0	0	---	0.00	30.223 
00:20	27.8	27.8	27.8	73	20.3	0	0	---	0.00	30.224 
00:25	27.6	27.6	27.6	73	20.1	0	1	338	0.00	30.223 
00:30	27.6	27.6	27.6	73	20.1	0	1	338	0.00	30.225 
00:35	27.5	27.5	27.5	73	20.0	0	0	---	0.00	30.227 
00:40	27.5	27.5	27.5	73	20.0	0	0	---	0.00	30.226 
00:45	27.5	27.5	27.5	73	20.0	0	0	---	0.00	30.227 
00:50	27.3	27.3	27.3	74	20.1	0	0	---	0.00	30.227 
00:55	27.3	27.3	27.3	74	20.1	0	0	---	0.00	30.228 
01:00	27.2	27.2	27.2	74	20.0	0	0	---	0.00	30.229 
01:05	27.0	27.0	27.0	74	19.8	0	0	---	0.00	30.229 
01:10	26.9	26.9	26.9	74	19.7	0	0	---	0.00	30.229 
01:15	26.7	26.7	26.7	74	19.5	0	0	---	0.00	30.230 
01:20	26.6	26.6	26.6	74	19.5	0	0	---	0.00	30.231 
01:25	26.6	26.6	26.6	75	19.8	0	0	---	0.00	30.232 
01:30	26.4	26.4	26.4	75	19.6	0	0	---	0.00	30.235 
01:35	26.4	26.4	26.4	75	19.6	0	0	---	0.00	30.237 
01:40	26.3	26.3	26.3	75	19.5	0	0	---	0.00	30.237 
01:45	26.4	26.4	26.4	75	19.6	0	0	---	0.00	30.240 
01:50	26.4	26.4	26.4	75	19.6	0	0	---	0.00	30.240 
01:55	26.3	26.3	26.3	75	19.5	0	1	338	0.00	30.240 
02:00	26.3	26.3	26.3	75	19.5	0	1	338	0.00	30.240 
02:05	26.3	26.3	26.3	76	19.8	0	0	---	0.00	30.238 
02:10	26.1	26.1	26.1	76	19.6	0	0	---	0.00	30.237 
02:15	26.1	26.1	26.1	76	19.6	0	1	338	0.00	30.238 
02:20	26.0	26.0	26.0	76	19.5	0	0	---	0.00	30.239 
02:25	26.0	26.0	26.0	76	19.5	0	0	---	0.00	30.240 
02:30	25.8	25.8	25.8	76	19.3	0	0	---	0.00	30.240 
02:35	25.8	25.8	25.8	77	19.6	0	1	338	0.00	30.238 
02:40	25.7	25.7	25.7	77	19.5	0	0	---	0.00	30.237 
02:45	25.7	25.7	25.7	77	19.5	0	0	---	0.00	30.235 
02:50	25.6	25.6	25.6	77	19.4	0	1	338	0.00	30.234 
02:55	25.6	25.6	25.6	77	19.4	0	0	---	0.00	30.234 
03:00	25.6	25.6	25.6	78	19.7	0	0	---	0.00	30.233 
03:05	25.4	25.4	25.4	78	19.5	0	0	---	0.00	30.235 
03:10	25.4	25.4	25.4	78	19.5	0	1	338	0.00	30.235 
03:15	25.4	25.4	25.4	79	19.8	0	0	---	0.00	30.234 
03:20	25.4	25.4	25.4	79	19.8	0	0	---	0.00	30.234 
03:25	25.3	25.3	25.3	79	19.7	0	0	---	0.00	30.234 
03:30	25.1	25.1	25.1	79	19.5	0	0	---	0.00	30.234 
03:35	25.1	25.1	25.1	80	19.8	0	0	---	0.00	30.234 
03:40	25.0	25.0	25.0	80	19.7	0	0	---	0.00	30.234 
03:45	24.8	24.8	24.8	80	19.5	0	0	---	0.00	30.233 
03:50	24.8	24.8	24.8	81	19.8	0	1	338	0.00	30.234 
03:55	24.8	24.8	24.8	81	19.8	0	0	---	0.00	30.234 
04:00	24.8	24.8	24.8	81	19.8	0	0	---	0.00	30.234 
04:05	24.7	24.7	24.7	81	19.7	0	1	338	0.00	30.236 
04:10	24.7	24.7	24.7	82	20.0	0	0	---	0.00	30.237 
04:15	24.7	24.7	24.7	82	20.0	0	0	---	0.00	30.239 
04:20	24.7	24.7	24.7	82	20.0	0	0	---	0.00	30.240 
04:25	24.7	24.7	24.7	82	20.0	0	1	338	0.00	30.240 
04:30	24.7	24.7	24.7	83	20.3	0	1	338	0.00	30.243 
04:35	24.7	24.7	24.7	83	20.3	0	1	338	0.00	30.244 
04:40	24.7	24.7	24.7	83	20.3	0	0	---	0.00	30.246 
04:45	24.7	24.7	24.7	83	20.3	0	0	---	0.00	30.248 
04:50	24.7	24.7	24.7	83	20.3	0	0	---	0.00	30.249 
04:55	24.5	24.5	24.5	83	20.1	0	0	---	0.00	30.249 
05:00	24.4	24.4	24.4	84	20.3	0	1	338	0.00	30.250 
05:05	24.4	24.4	24.4	84	20.3	0	0	---	0.00	30.252 
05:10	24.4	24.4	24.4	84	20.3	0	0	---	0.00	30.253 
05:15	24.4	24.4	24.4	84	20.3	0	1	338	0.00	30.257 
05:20	24.4	24.4	24.4	85	20.6	0	1	338	0.00	30.259 
05:25	24.5	24.5	24.5	85	20.6	0	1	338	0.00	30.262 
05:30	24.5	24.5	24.5	85	20.6	0	1	338	0.00	30.263 
05:35	24.5	24.5	24.5	85	20.6	0	1	338	0.00	30.266 
05:40	24.5	24.5	24.5	85	20.6	0	1	338	0.00	30.266 
05:45	24.5	24.5	24.5	85	20.6	0	0	---	0.00	30.268 
05:50	24.5	24.5	24.5	85	20.6	0	1	338	0.00	30.269 
05:55	24.4	24.4	24.4	85	20.6	0	0	---	0.00	30.270 
06:00	24.4	24.4	24.4	85	20.6	0	1	338	0.00	30.272 
06:05	24.2	24.2	24.2	85	20.4	0	0	---	0.00	30.279 
06:10	24.1	24.1	24.1	86	20.5	0	0	---	0.00	30.282 
06:15	24.1	24.1	24.1	86	20.5	0	0	---	0.00	30.284 
06:20	23.9	23.9	23.9	86	20.3	0	0	---	0.00	30.285 
06:25	23.9	23.9	23.9	86	20.3	0	1	338	0.00	30.286 
06:30	23.8	23.8	23.8	86	20.2	0	0	---	0.00	30.287 
06:35	23.8	23.8	23.8	87	20.5	0	1	338	0.00	30.288 
06:40	23.6	23.6	23.6	87	20.3	0	0	---	0.00	30.289 
06:45	23.6	23.6	23.6	87	20.3	0	0	---	0.00	30.292 
06:50	23.6	23.6	23.6	87	20.3	0	0	---	0.00	30.294 
06:55	23.5	23.5	23.5	87	20.2	0	0	---	0.00	30.294 
07:00	23.5	23.5	23.5	88	20.5	0	0	---	0.00	30.297 
07:05	23.5	23.5	23.5	88	20.5	0	0	---	0.00	30.301 
07:10	23.6	23.6	23.6	88	20.6	0	0	---	0.00	30.303 
07:15	23.6	23.6	23.6	88	20.6	0	0	---	0.00	30.305 
07:20	23.8	23.8	23.8	88	20.8	0	0	---	0.00	30.306 
07:25	23.9	23.9	23.9	88	20.9	0	0	---	0.00	30.307 
07:30	24.2	24.2	24.2	88	21.2	0	0	---	0.00	30.309 
07:35	24.4	24.4	24.4	89	21.6	0	1	338	0.00	30.310 
07:40	24.8	24.8	24.8	89	22.0	0	2	338	0.00	30.316 
07:45	25.3	25.3	25.3	88	22.3	0	0	---	0.00	30.318 
07:50	25.7	25.7	25.7	88	22.6	0	1	338	0.00	30.318 
07:55	26.0	26.0	26.0	88	22.9	0	2	338	0.00	30.318 
08:00	26.4	26.4	26.4	88	23.3	0	1	338	0.00	30.319 
08:05	26.7	26.7	26.7	87	23.4	0	1	338	0.00	30.321 
08:10	27.0	27.0	27.0	86	23.4	0	1	338	0.00	30.321 
08:15	27.3	27.3	27.3	85	23.4	0	1	338	0.00	30.323 
08:20	27.6	27.6	27.6	84	23.4	0	1	338	0.00	30.323 
08:25	27.8	27.8	27.8	84	23.6	0	2	338	0.00	30.323 
08:30	28.1	28.1	28.1	83	23.6	0	1	338	0.00	30.324 
08:35	28.5	28.5	28.5	83	24.0	1	4	45	0.00	30.325 
08:40	29.0	29.0	29.0	82	24.2	1	3	45	0.00	30.325 
08:45	29.4	29.4	29.4	81	24.3	1	4	112	0.00	30.326 
08:50	29.7	29.7	29.7	80	24.3	0	2	90	0.00	30.329 
08:55	29.8	29.8	29.8	80	24.4	0	3	90	0.00	30.332 
09:00	30.0	30.0	30.0	79	24.3	1	2	68	0.00	30.334 
09:05	29.8	29.8	29.8	78	23.8	0	2	68	0.00	30.336 
09:10	30.0	30.0	30.0	79	24.3	0	2	45	0.00	30.337 
09:15	30.3	30.3	30.3	79	24.6	0	2	45	0.00	30.339 
09:20	30.6	30.6	30.6	78	24.6	1	3	45	0.00	30.339 
09:25	30.9	30.9	30.9	78	24.9	1	3	45	0.00	30.342 
09:30	30.7	30.7	30.7	77	24.4	0	2	68	0.00	30.346 
09:35	30.7	30.7	30.7	78	24.7	1	4	112	0.00	30.347 
09:40	30.7	30.7	30.7	78	24.7	0	2	112	0.00	30.348 
09:45	30.7	30.7	30.7	78	24.7	0	2	112	0.00	30.350 
09:50	30.7	30.7	30.7	78	24.7	1	2	90	0.00	30.350 
09:55	30.9	30.9	30.9	78	24.9	1	3	90	0.00	30.352 
10:00	30.9	30.9	30.9	78	24.9	1	3	90	0.00	30.352 
10:05	31.0	31.0	31.0	78	25.0	1	3	112	0.00	30.350 
10:10	31.3	31.3	31.3	77	24.9	1	5	112	0.00	30.353 
10:15	31.5	31.5	31.5	76	24.8	1	3	112	0.00	30.355 
10:20	31.3	31.3	31.3	75	24.3	1	3	112	0.00	30.356 
10:25	31.2	31.2	31.2	73	23.6	0	1	112	0.00	30.357 
10:30	31.5	31.5	31.5	75	24.5	0	2	112	0.00	30.359 
10:35	31.5	31.5	31.5	73	23.9	1	3	90	0.00	30.358 
10:40	31.8	31.8	31.8	74	24.5	1	3	90	0.00	30.359 
10:45	31.9	31.9	31.9	73	24.2	1	3	90	0.00	30.356 
10:50	31.9	31.9	31.9	72	23.9	0	1	90	0.00	30.354 
10:55	32.2	32.2	32.2	69	23.2	0	2	90	0.00	30.353 
11:00	32.2	32.2	32.2	66	22.1	0	1	90	0.00	30.352 
11:05	32.1	32.1	32.1	67	22.4	0	1	90	0.00	30.354 
11:10	32.2	32.2	32.2	67	22.5	0	1	90	0.00	30.351 
11:15	32.2	32.2	32.2	67	22.5	0	1	90	0.00	30.353 
11:20	32.4	32.4	32.4	66	22.3	1	2	90	0.00	30.351 
11:25	32.5	32.5	32.5	68	23.1	0	1	90	0.00	30.350 
11:30	32.8	32.8	32.8	67	23.1	0	3	90	0.00	30.350 
11:35	33.1	33.1	33.1	69	24.1	1	4	90	0.00	30.350 
11:40	33.8	33.8	33.8	65	23.3	1	4	45	0.00	30.348 
11:45	34.7	34.7	34.7	67	24.9	2	6	112	0.00	30.346 
11:50	35.0	35.0	35.0	62	23.3	1	3	68	0.00	30.347 
11:55	35.2	35.2	35.2	64	24.3	0	1	112	0.00	30.346 
12:00	35.2	35.2	35.2	64	24.3	0	2	90	0.00	30.346 
12:05	34.7	34.7	34.7	61	22.6	1	4	68	0.00	30.346 
12:10	34.4	34.4	34.4	60	22.0	1	4	90	0.00	30.348 
12:15	35.2	35.2	35.2	64	24.3	1	4	292	0.00	30.346 
12:20	35.8	35.8	35.8	62	24.1	1	4	22	0.00	30.346 
12:25	36.5	36.5	36.5	66	26.2	1	3	90	0.00	30.345 
12:30	36.9	36.9	36.9	60	24.3	1	3	22	0.00	30.343 
12:35	37.5	37.5	37.5	62	25.7	2	7	90	0.00	30.339 
12:40	37.6	37.6	37.6	58	24.2	2	4	112	0.00	30.338 
12:45	37.9	37.9	37.9	57	24.0	1	3	112	0.00	30.335 
12:50	37.9	37.9	37.9	54	22.8	1	3	90	0.00	30.334 
12:55	37.3	37.3	37.3	53	21.8	1	3	270	0.00	30.334 
13:00	37.2	37.2	37.2	53	21.7	1	4	270	0.00	30.332 
13:05	37.9	37.9	37.9	56	23.6	1	5	248	0.00	30.330 
13:10	38.3	38.3	38.3	53	22.7	1	5	112	0.00	30.328 
13:15	38.3	38.3	38.3	50	21.3	1	2	68	0.00	30.325 
13:20	38.5	38.5	38.5	51	22.0	1	4	22	0.00	30.323 
13:25	38.3	38.3	38.3	49	20.8	1	4	248	0.00	30.326 
13:30	38.0	38.0	38.0	52	22.0	1	3	0	0.00	30.320 
13:35	39.3	39.3	39.3	52	23.2	2	7	315	0.00	30.318 
13:40	40.2	40.2	40.2	48	22.1	3	7	248	0.00	30.314 
13:45	40.9	40.9	40.9	48	22.7	2	7	248	0.00	30.313 
13:50	41.5	41.5	41.5	46	22.3	2	6	248	0.00	30.313 
13:55	41.5	41.5	41.5	46	22.3	2	4	248	0.00	30.311 
14:00	41.6	41.6	41.6	43	20.8	2	7	270	0.00	30.311 
14:05	41.6	41.6	41.6	44	21.3	1	4	315	0.00	30.309 
14:10	41.9	41.9	41.9	48	23.7	1	3	0	0.00	30.308 
14:15	41.6	41.6	41.6	43	20.8	2	5	338	0.00	30.303 
14:20	41.6	41.6	41.6	45	21.9	2	6	270	0.00	30.301 
14:25	41.3	41.3	41.3	44	21.0	2	5	338	0.00	30.300 
14:30	40.2	40.2	40.2	46	21.1	1	3	292	0.00	30.299 
14:35	40.3	40.3	40.3	46	21.2	1	3	315	0.00	30.298 
14:40	40.2	40.2	40.2	46	21.1	2	4	338	0.00	30.298 
14:45	39.5	39.5	39.5	46	20.5	1	4	338	0.00	30.296 
14:50	39.8	39.8	39.8	46	20.7	0	2	338	0.00	30.296 
14:55	40.3	40.3	40.3	49	22.7	1	3	248	0.00	30.296 
15:00	40.6	40.6	40.6	44	20.4	2	5	248	0.00	30.295 
15:05	40.3	40.3	40.3	47	21.7	0	2	338	0.00	30.294 
15:10	40.1	40.1	40.1	46	21.0	0	2	338	0.00	30.295 
15:15	39.9	39.9	39.9	48	21.8	1	3	225	0.00	30.288 
15:20	40.3	40.3	40.3	46	21.2	1	4	248	0.00	30.288 
15:25	41.1	41.1	41.1	46	21.9	1	5	248	0.00	30.285 
15:30	41.5	41.5	41.5	44	21.2	1	2	338	0.00	30.284 
15:35	41.9	41.9	41.9	46	22.6	1	4	248	0.00	30.282 
15:40	42.2	42.2	42.2	44	21.9	2	4	292	0.00	30.281 
15:45	42.5	42.5	42.5	43	21.6	2	6	292	0.00	30.279 
15:50	41.6	41.6	41.6	42	20.2	2	6	270	0.00	30.282 
15:55	40.8	40.8	40.8	44	20.6	2	4	225	0.00	30.281 
16:00	40.5	40.5	40.5	46	21.4	1	3	248	0.00	30.281 
16:05	40.1	40.1	40.1	43	19.4	2	6	248	0.00	30.282 
16:10	40.1	40.1	40.1	43	19.4	1	4	338	0.00	30.283 
16:15	39.9	39.9	39.9	44	19.8	1	3	338	0.00	30.282 
16:20	39.8	39.8	39.8	44	19.7	1	2	248	0.00	30.282 
16:25	39.8	39.8	39.8	47	21.2	0	2	248	0.00	30.280 
16:30	40.1	40.1	40.1	42	18.9	0	2	248	0.00	30.278 
16:35	40.3	40.3	40.3	45	20.7	1	4	292	0.00	30.277 
16:40	40.3	40.3	40.3	44	20.1	0	2	315	0.00	30.273 
16:45	41.1	41.1	41.1	44	20.9	2	5	248	0.00	30.276 
16:50	41.2	41.2	41.2	41	19.3	1	4	248	0.00	30.273 
16:55	41.2	41.2	41.2	42	19.9	2	7	248	0.00	30.276 
17:00	40.5	40.5	40.5	41	18.7	2	6	248	0.00	30.276 
17:05	39.9	39.9	39.9	42	18.7	2	6	248	0.00	30.274 
17:10	39.5	39.5	39.5	41	17.8	2	4	248	0.00	30.270 
17:15	39.2	39.2	39.2	43	18.6	1	3	248	0.00	30.272 
17:20	39.1	39.1	39.1	45	19.6	0	2	225	0.00	30.273 
17:25	38.9	38.9	38.9	45	19.4	0	1	225	0.00	30.272 
17:30	39.1	39.1	39.1	46	20.1	1	3	0	0.00	30.272 
17:35	39.2	39.2	39.2	47	20.7	0	2	292	0.00	30.273 
17:40	39.2	39.2	39.2	45	19.7	1	2	248	0.00	30.273 
17:45	39.2	39.2	39.2	44	19.1	0	1	248	0.00	30.271 
17:50	39.2	39.2	39.2	45	19.7	0	2	248	0.00	30.274 
17:55	39.2	39.2	39.2	44	19.1	0	1	248	0.00	30.273 
18:00	39.3	39.3	39.3	44	19.2	1	3	248	0.00	30.273 
18:05	39.3	39.3	39.3	44	19.2	0	2	270	0.00	30.274 
18:10	39.2	39.2	39.2	44	19.1	0	2	248	0.00	30.273 
18:15	39.1	39.1	39.1	44	19.0	1	4	248	0.00	30.273 
18:20	38.9	38.9	38.9	43	18.3	2	5	248	0.00	30.271 
18:25	38.8	38.8	38.8	44	18.8	1	3	248	0.00	30.270 
18:30	38.8	38.8	38.8	45	19.3	0	2	248	0.00	30.269 
18:35	38.6	38.6	38.6	43	18.1	0	1	248	0.00	30.268 
18:40	38.5	38.5	38.5	43	18.0	0	1	248	0.00	30.268 
18:45	38.2	38.2	38.2	44	18.2	0	1	248	0.00	30.267 
18:50	38.0	38.0	38.0	44	18.0	0	1	248	0.00	30.268 
18:55	37.8	37.8	37.8	45	18.4	0	1	248	0.00	30.268 
19:00	37.6	37.6	37.6	46	18.7	0	1	248	0.00	30.269 
19:05	37.3	37.3	37.3	47	18.9	0	1	248	0.00	30.269 
19:10	37.0	37.0	37.0	47	18.7	0	2	248	0.00	30.269 
19:15	36.9	36.9	36.9	46	18.1	0	1	248	0.00	30.270 
19:20	36.8	36.8	36.8	47	18.5	0	1	248	0.00	30.268 
19:25	36.6	36.6	36.6	48	18.8	0	1	248	0.00	30.265 
19:30	36.3	36.3	36.3	48	18.5	0	0	---	0.00	30.261 
19:35	35.9	35.9	35.9	49	18.6	0	0	---	0.00	30.262 
19:40	35.6	35.6	35.6	50	18.8	0	0	---	0.00	30.261 
19:45	35.2	35.2	35.2	51	18.9	0	0	---	0.00	30.265 
19:50	34.7	34.7	34.7	52	18.9	0	0	---	0.00	30.267 
19:55	34.3	34.3	34.3	53	19.0	0	0	---	0.00	30.266 
20:00	34.0	34.0	34.0	54	19.1	0	0	---	0.00	30.265 
20:05	33.5	33.5	33.5	54	18.7	0	0	---	0.00	30.258 
20:10	33.2	33.2	33.2	56	19.2	0	0	---	0.00	30.256 
20:15	32.9	32.9	32.9	57	19.4	0	0	---	0.00	30.254 
20:20	32.7	32.7	32.7	58	19.6	0	0	---	0.00	30.253 
20:25	32.4	32.4	32.4	58	19.3	0	0	---	0.00	30.252 
20:30	31.9	31.9	31.9	59	19.2	0	0	---	0.00	30.252 
20:35	31.8	31.8	31.8	60	19.5	0	0	---	0.00	30.252 
20:40	31.5	31.5	31.5	60	19.2	0	0	---	0.00	30.252 
20:45	31.2	31.2	31.2	61	19.3	0	0	---	0.00	30.253 
20:50	31.0	31.0	31.0	63	19.9	0	0	---	0.00	30.252 
20:55	31.0	31.0	31.0	63	19.9	0	0	---	0.00	30.251 
21:00	31.0	31.0	31.0	64	20.3	0	0	---	0.00	30.251 
21:05	31.0	31.0	31.0	64	20.3	0	0	---	0.00	30.251 
21:10	30.9	30.9	30.9	64	20.2	0	0	---	0.00	30.250 
21:15	30.9	30.9	30.9	65	20.5	0	0	---	0.00	30.247 
21:20	30.7	30.7	30.7	65	20.3	0	0	---	0.00	30.241 
21:25	30.7	30.7	30.7	65	20.3	0	0	---	0.00	30.240 
21:30	30.6	30.6	30.6	65	20.3	0	0	---	0.00	30.238 
21:35	30.1	30.1	30.1	66	20.1	0	0	---	0.00	30.239 
21:40	30.0	30.0	30.0	68	20.7	0	0	---	0.00	30.238 
21:45	30.0	30.0	30.0	68	20.7	0	0	---	0.00	30.237 
21:50	30.0	30.0	30.0	68	20.7	0	1	248	0.00	30.238 
21:55	30.0	30.0	30.0	68	20.7	0	1	248	0.00	30.236 
22:00	30.1	30.1	30.1	68	20.8	0	1	248	0.00	30.233 
22:05	30.3	30.3	30.3	68	21.0	0	1	248	0.00	30.231 
22:10	30.6	30.6	30.6	67	21.0	0	0	---	0.00	30.229 
22:15	30.7	30.7	30.7	66	20.7	0	1	248	0.00	30.229 
22:20	30.9	30.9	30.9	66	20.9	0	1	248	0.00	30.227 
22:25	30.9	30.9	30.9	66	20.9	0	0	---	0.00	30.227 
22:30	30.9	30.9	30.9	66	20.9	0	1	248	0.00	30.224 
22:35	30.7	30.7	30.7	66	20.7	0	0	---	0.00	30.223 
22:40	30.7	30.7	30.7	66	20.7	0	0	---	0.00	30.221 
22:45	30.6	30.6	30.6	67	21.0	0	1	248	0.00	30.221 
22:50	30.6	30.6	30.6	67	21.0	0	3	158	0.00	30.220 
22:55	30.7	30.7	30.7	67	21.1	0	1	158	0.00	30.220 
23:00	30.7	30.7	30.7	67	21.1	0	1	158	0.00	30.218 
23:05	30.9	30.9	30.9	67	21.3	0	1	158	0.00	30.210 
23:10	30.9	30.9	30.9	67	21.3	0	2	158	0.00	30.208 
23:15	30.9	30.9	30.9	67	21.3	0	1	158	0.00	30.208 
23:20	31.0	31.0	31.0	67	21.3	0	1	158	0.00	30.208 
23:25	31.0	31.0	31.0	67	21.3	0	1	158	0.00	30.207 
23:30	31.0	31.0	31.0	67	21.3	0	2	158	0.00	30.204 
23:35	31.0	31.0	31.0	67	21.3	0	1	158	0.00	30.203 
23:40	31.2	31.2	31.2	67	21.5	0	2	158	0.00	30.204 
23:45	31.2	31.2	31.2	67	21.5	0	3	112	0.00	30.204 
23:50	31.0	31.0	31.0	67	21.3	0	1	112	0.00	30.204 
23:55	30.9	30.9	30.9	68	21.6	0	1	112	0.00	30.203 

CoCoRaHS
IN-AL-39
A2 Web Hosting
Creative Commons License
GoDaddy
Look for:

loaded 2017-10-18 07:36:04 • last modified 2010-11-18 10:43:29
Privacy PolicyDisclaimer
• wx.awcolley.com is powered by PmWiki v.2002016 •
• all content (unless otherwise noted) © 2017 A W Colley